createdAt,value
2022-12-01T00:01:23.104Z,94.30
2022-12-01T00:03:50.230Z,100.10
2022-12-01T00:06:20.360Z,92.68
2022-12-01T00:09:07.722Z,88.25
2022-12-01T00:11:37.554Z,82.05
2022-12-01T00:14:05.645Z,75.28
2022-12-01T00:16:33.696Z,75.07
2022-12-01T00:19:00.900Z,75.93
2022-12-01T00:21:28.978Z,70.85
2022-12-01T00:23:58.282Z,75.70
2022-12-01T00:26:31.406Z,75.28
2022-12-01T00:28:59.763Z,72.28
2022-12-01T00:31:28.100Z,78.75
2022-12-01T00:33:55.933Z,79.82
2022-12-01T00:36:24.063Z,76.47
2022-12-01T00:38:56.302Z,76.35
2022-12-01T00:41:24.672Z,78.45
2022-12-01T00:43:52.295Z,74.82
2022-12-01T00:46:19.508Z,78.28
2022-12-01T00:48:46.897Z,73.75
2022-12-01T00:51:16.297Z,76.03
2022-12-01T00:53:44.817Z,74.20
2022-12-01T00:56:12.238Z,79.75
2022-12-01T00:58:46.349Z,79.88
2022-12-01T01:01:31.879Z,78.32
2022-12-01T01:03:59.155Z,75.78
2022-12-01T01:06:27.176Z,81.10
2022-12-01T01:08:54.565Z,78.45
2022-12-01T01:11:21.566Z,77.75
2022-12-01T01:13:49.034Z,74.57
2022-12-01T01:16:19.741Z,76.53
2022-12-01T01:18:47.794Z,79.68
2022-12-01T01:21:17.832Z,81.15
2022-12-01T01:23:45.042Z,80.40
2022-12-01T01:26:31.116Z,77.80
2022-12-01T01:29:01.063Z,75.43
2022-12-01T01:31:30.533Z,76.28
2022-12-01T01:34:00.096Z,80.07
2022-12-01T01:36:28.218Z,73.88
2022-12-01T01:38:55.765Z,84.85
2022-12-01T01:41:23.950Z,78.00
2022-12-01T01:43:55.225Z,81.22
2022-12-01T01:46:24.573Z,84.45
2022-12-01T01:49:11.995Z,79.72
2022-12-01T01:51:57.867Z,85.50
2022-12-01T01:54:33.235Z,76.80
2022-12-01T01:57:02.534Z,81.10
2022-12-01T01:59:34.772Z,82.20
2022-12-01T02:02:08.758Z,74.88
2022-12-01T02:04:42.461Z,78.60
2022-12-01T02:07:13.100Z,72.53
2022-12-01T02:09:41.325Z,81.35
2022-12-01T02:12:26.386Z,80.25
2022-12-01T02:14:53.343Z,83.93
2022-12-01T02:17:47.565Z,79.65
2022-12-01T02:20:50.905Z,76.63
2022-12-01T02:24:02.701Z,77.68
2022-12-01T02:26:54.632Z,75.25
2022-12-01T02:29:54.845Z,73.07
2022-12-01T02:32:58.236Z,76.95
2022-12-01T02:35:39.275Z,74.15
2022-12-01T02:38:21.879Z,76.38
2022-12-01T02:41:04.595Z,75.53
2022-12-01T02:43:51.539Z,81.07
2022-12-01T02:46:42.236Z,79.38
2022-12-01T02:49:21.851Z,79.57
2022-12-01T02:51:51.155Z,79.65
2022-12-01T02:54:21.356Z,76.60
2022-12-01T02:56:54.453Z,76.88
2022-12-01T02:59:21.494Z,81.03
2022-12-01T03:02:00.890Z,79.72
2022-12-01T03:04:55.496Z,78.60
2022-12-01T03:08:03.966Z,82.68
2022-12-01T03:10:58.012Z,85.32
2022-12-01T03:13:42.520Z,81.93
2022-12-01T03:16:21.158Z,88.78
2022-12-01T03:19:31.329Z,88.07
2022-12-01T03:22:32.072Z,96.13
2022-12-01T03:25:01.557Z,90.88
2022-12-01T03:27:35.464Z,88.25
2022-12-01T03:30:04.690Z,82.82
2022-12-01T03:32:38.370Z,90.82
2022-12-01T03:35:12.819Z,84.18
2022-12-01T03:37:42.895Z,83.28
2022-12-01T03:40:14.895Z,79.80
2022-12-01T03:42:48.041Z,88.38
2022-12-01T03:45:26.701Z,84.45
2022-12-01T03:47:53.936Z,80.30
2022-12-01T03:50:29.078Z,78.55
2022-12-01T03:53:04.460Z,76.63
2022-12-01T03:55:39.495Z,75.25
2022-12-01T03:58:17.346Z,79.70
2022-12-01T04:00:50.076Z,82.25
2022-12-01T04:03:19.795Z,72.03
2022-12-01T04:06:11.881Z,74.78
2022-12-01T04:08:39.822Z,80.03
2022-12-01T04:11:32.193Z,73.20
2022-12-01T04:14:00.984Z,76.65
2022-12-01T04:16:27.933Z,78.13
2022-12-01T04:18:56.451Z,73.82
2022-12-01T04:21:23.875Z,77.60
2022-12-01T04:24:03.691Z,79.57
2022-12-01T04:26:34.036Z,77.13
2022-12-01T04:29:05.857Z,76.18
2022-12-01T04:31:33.229Z,76.03
2022-12-01T04:34:00.889Z,79.30
2022-12-01T04:36:31.265Z,79.97
2022-12-01T04:38:58.801Z,79.78
2022-12-01T04:41:26.339Z,80.22
2022-12-01T04:43:56.856Z,79.30
2022-12-01T04:46:25.883Z,77.28
2022-12-01T04:48:53.285Z,75.20
2022-12-01T04:51:22.604Z,73.45
2022-12-01T04:53:52.665Z,75.30
2022-12-01T04:56:20.240Z,78.07
2022-12-01T04:58:53.812Z,74.82
2022-12-01T05:01:21.253Z,75.10
2022-12-01T05:03:51.976Z,71.22
2022-12-01T05:06:25.739Z,83.07
2022-12-01T05:08:56.517Z,73.20
2022-12-01T05:11:26.173Z,72.53
2022-12-01T05:13:54.421Z,76.25
2022-12-01T05:16:30.367Z,74.78
2022-12-01T05:19:20.250Z,74.25
2022-12-01T05:21:49.091Z,76.43
2022-12-01T05:24:17.344Z,74.13
2022-12-01T05:26:45.982Z,76.63
2022-12-01T05:29:13.415Z,76.78
2022-12-01T05:31:41.492Z,74.53
2022-12-01T05:34:09.266Z,81.15
2022-12-01T05:36:37.391Z,77.72
2022-12-01T05:39:05.460Z,79.93
2022-12-01T05:41:32.651Z,80.28
2022-12-01T05:43:59.959Z,84.50
2022-12-01T05:46:27.451Z,77.18
2022-12-01T05:48:55.812Z,81.18
2022-12-01T05:51:23.301Z,74.85
2022-12-01T05:53:50.744Z,78.88
2022-12-01T05:56:18.161Z,74.57
2022-12-01T05:58:45.131Z,77.50
2022-12-01T06:01:12.560Z,79.80
2022-12-01T06:03:39.522Z,75.68
2022-12-01T06:06:07.260Z,73.00
2022-12-01T06:08:34.384Z,81.32
2022-12-01T06:11:03.615Z,80.95
2022-12-01T06:13:30.861Z,77.28
2022-12-01T06:16:03.397Z,78.55
2022-12-01T06:18:36.972Z,79.45
2022-12-01T06:21:07.438Z,76.78
2022-12-01T06:23:34.953Z,75.65
2022-12-01T06:26:02.229Z,72.35
2022-12-01T06:28:29.552Z,77.15
2022-12-01T06:31:02.735Z,71.80
2022-12-01T06:33:31.943Z,76.35
2022-12-01T06:36:10.147Z,79.68
2022-12-01T06:38:37.545Z,82.97
2022-12-01T06:41:05.665Z,76.28
2022-12-01T06:43:32.894Z,75.72
2022-12-01T06:46:02.841Z,80.30
2022-12-01T06:48:31.695Z,74.68
2022-12-01T06:50:59.781Z,78.82
2022-12-01T06:53:28.660Z,83.35
2022-12-01T06:56:06.123Z,81.55
2022-12-01T06:58:34.899Z,74.80
2022-12-01T07:01:12.860Z,80.50
2022-12-01T07:03:40.302Z,79.28
2022-12-01T07:06:07.456Z,76.30
2022-12-01T07:08:34.547Z,77.80
2022-12-01T07:11:04.478Z,85.57
2022-12-01T07:13:34.097Z,84.57
2022-12-01T07:16:06.090Z,76.85
2022-12-01T07:18:34.105Z,74.57
2022-12-01T07:21:04.034Z,77.40
2022-12-01T07:23:31.764Z,80.25
2022-12-01T07:26:04.386Z,77.15
2022-12-01T07:28:34.066Z,75.85
2022-12-01T07:31:09.435Z,69.13
2022-12-01T07:33:37.019Z,73.93
2022-12-01T07:36:12.382Z,76.72
2022-12-01T07:38:40.244Z,80.93
2022-12-01T07:41:17.008Z,71.85
2022-12-01T07:43:44.358Z,73.85
2022-12-01T07:46:23.351Z,77.22
2022-12-01T07:48:56.382Z,76.63
2022-12-01T07:51:25.656Z,70.40
2022-12-01T07:53:55.147Z,70.43
2022-12-01T07:56:23.247Z,72.43
2022-12-01T07:58:51.773Z,77.30
2022-12-01T08:01:21.786Z,73.57
2022-12-01T08:03:51.959Z,73.80
2022-12-01T08:06:20.350Z,74.88
2022-12-01T08:08:53.853Z,72.60
2022-12-01T08:11:24.724Z,69.68
2022-12-01T08:13:53.930Z,83.53
2022-12-01T08:16:23.034Z,94.75
2022-12-01T08:18:50.778Z,100.80
2022-12-01T08:21:20.226Z,90.90
2022-12-01T08:23:48.592Z,85.88
2022-12-01T08:26:18.635Z,93.35
2022-12-01T08:28:51.969Z,85.15
2022-12-01T08:31:22.357Z,95.95
2022-12-01T08:33:51.024Z,114.40
2022-12-01T08:36:19.383Z,136.88
2022-12-01T08:38:49.204Z,134.10
2022-12-01T08:41:16.929Z,123.00
2022-12-01T08:44:01.721Z,94.43
2022-12-01T08:46:35.870Z,85.15
2022-12-01T08:49:05.480Z,86.03
2022-12-01T08:51:33.187Z,86.35
2022-12-01T08:54:01.865Z,90.03
2022-12-01T08:56:29.114Z,118.03
2022-12-01T08:58:56.583Z,115.43
2022-12-01T09:01:28.437Z,108.93
2022-12-01T09:04:06.777Z,103.32
2022-12-01T09:06:40.138Z,108.65
2022-12-01T09:09:10.145Z,104.90
2022-12-01T09:11:37.762Z,103.97
2022-12-01T09:14:05.137Z,91.85
2022-12-01T09:16:33.533Z,95.55
2022-12-01T09:19:00.732Z,100.30
2022-12-01T09:21:31.074Z,91.78
2022-12-01T09:24:00.983Z,89.45
2022-12-01T09:26:29.036Z,85.55
2022-12-01T09:29:04.269Z,90.10
2022-12-01T09:31:31.887Z,87.00
2022-12-01T09:34:01.839Z,91.65
2022-12-01T09:36:30.387Z,86.25
2022-12-01T09:39:00.159Z,88.65
2022-12-01T09:41:50.515Z,88.53
2022-12-01T09:44:38.052Z,84.40
2022-12-01T09:47:19.395Z,91.63
2022-12-01T09:50:12.567Z,83.13
2022-12-01T09:52:52.040Z,84.40
2022-12-01T09:55:23.397Z,78.20
2022-12-01T09:57:56.321Z,82.60
2022-12-01T10:00:26.887Z,79.07
2022-12-01T10:03:24.960Z,67.60
2022-12-01T10:06:26.241Z,67.13
2022-12-01T10:08:55.196Z,66.22
2022-12-01T10:11:33.938Z,70.38
2022-12-01T10:14:01.461Z,82.20
2022-12-01T10:16:38.621Z,102.90
2022-12-01T10:19:12.875Z,88.93
2022-12-01T10:21:54.199Z,88.80
2022-12-01T10:24:58.640Z,87.15
2022-12-01T10:27:52.935Z,57.85
2022-12-01T10:30:23.858Z,69.30
2022-12-01T10:32:57.880Z,86.13
2022-12-01T10:35:37.263Z,76.75
2022-12-01T10:38:15.512Z,82.15
2022-12-01T10:40:44.180Z,75.80
2022-12-01T10:43:11.272Z,77.20
2022-12-01T10:45:42.943Z,48.22
2022-12-01T10:48:23.285Z,42.47
2022-12-01T10:50:53.221Z,43.25
2022-12-01T10:53:23.196Z,41.90
2022-12-01T10:56:12.796Z,41.88
2022-12-01T10:59:04.908Z,45.15
2022-12-01T11:01:37.307Z,54.63
2022-12-01T11:04:21.852Z,50.57
2022-12-01T11:06:50.901Z,51.30
2022-12-01T11:09:27.057Z,49.38
2022-12-01T11:12:04.886Z,50.40
2022-12-01T11:14:48.969Z,47.55
2022-12-01T11:17:36.193Z,52.47
2022-12-01T11:20:27.367Z,52.17
2022-12-01T11:23:21.876Z,49.97
2022-12-01T11:26:21.062Z,46.85
2022-12-01T11:29:26.518Z,49.03
2022-12-01T11:31:54.571Z,50.65
2022-12-01T11:34:36.354Z,48.92
2022-12-01T11:37:06.876Z,49.58
2022-12-01T11:39:42.296Z,43.60
2022-12-01T11:42:19.556Z,40.58
2022-12-01T11:44:54.677Z,35.28
2022-12-01T11:47:27.232Z,36.47
2022-12-01T11:50:24.710Z,35.00
2022-12-01T11:52:51.856Z,36.22
2022-12-01T11:55:25.012Z,35.78
2022-12-01T11:57:54.993Z,34.92
2022-12-01T12:00:25.481Z,37.20
2022-12-01T12:03:17.079Z,38.78
2022-12-01T12:06:01.465Z,41.72
2022-12-01T12:08:59.852Z,39.53
2022-12-01T12:11:53.506Z,40.85
2022-12-01T12:15:08.377Z,41.33
2022-12-01T12:18:02.722Z,41.28
2022-12-01T12:20:56.939Z,41.58
2022-12-01T12:23:56.095Z,39.92
2022-12-01T12:26:27.386Z,37.92
2022-12-01T12:29:18.977Z,40.75
2022-12-01T12:32:04.159Z,46.45
2022-12-01T12:34:46.231Z,39.47
2022-12-01T12:37:35.392Z,44.42
2022-12-01T12:40:41.209Z,40.55
2022-12-01T12:43:22.519Z,40.70
2022-12-01T12:46:04.892Z,44.75
2022-12-01T12:49:18.649Z,42.55
2022-12-01T12:52:09.076Z,43.38
2022-12-01T12:54:46.412Z,43.05
2022-12-01T12:57:32.176Z,44.10
2022-12-01T13:00:14.174Z,41.53
2022-12-01T13:02:43.036Z,40.00
2022-12-01T13:05:18.712Z,45.13
2022-12-01T13:08:07.273Z,43.33
2022-12-01T13:10:40.738Z,41.72
2022-12-01T13:15:37.209Z,41.10
2022-12-01T13:18:17.069Z,33.13
2022-12-01T13:20:44.576Z,33.17
2022-12-01T13:23:16.895Z,30.42
2022-12-01T13:25:47.414Z,42.95
2022-12-01T13:28:49.473Z,32.13
2022-12-01T13:31:19.250Z,33.65
2022-12-01T13:34:15.941Z,32.00
2022-12-01T13:36:52.271Z,33.92
2022-12-01T13:39:36.486Z,31.17
2022-12-01T13:42:05.698Z,32.60
2022-12-01T13:44:46.114Z,33.38
2022-12-01T13:47:13.197Z,34.42
2022-12-01T13:49:49.404Z,30.70
2022-12-01T13:52:28.551Z,32.63
2022-12-01T13:55:07.802Z,31.45
2022-12-01T13:57:40.483Z,28.88
2022-12-01T14:00:24.015Z,35.47
2022-12-01T14:05:44.117Z,33.50
2022-12-01T14:08:31.312Z,35.75
2022-12-01T14:11:03.428Z,30.83
2022-12-01T14:13:32.844Z,36.15
2022-12-01T14:16:03.010Z,32.75
2022-12-01T14:18:42.031Z,30.25
2022-12-01T14:21:11.818Z,31.40
2022-12-01T14:24:01.158Z,29.58
2022-12-01T14:26:31.421Z,34.80
2022-12-01T14:29:01.577Z,31.00
2022-12-01T14:31:35.255Z,30.25
2022-12-01T14:34:18.872Z,32.33
2022-12-01T14:36:56.282Z,31.23
2022-12-01T14:39:36.358Z,29.23
2022-12-01T14:42:49.461Z,32.88
2022-12-01T14:45:23.108Z,31.15
2022-12-01T14:48:12.907Z,32.33
2022-12-01T14:50:49.463Z,34.63
2022-12-01T14:53:23.752Z,30.08
2022-12-01T14:56:10.276Z,32.28
2022-12-01T14:58:37.716Z,24.80
2022-12-01T15:01:07.213Z,24.65
2022-12-01T15:03:45.779Z,25.85
2022-12-01T15:06:19.280Z,23.25
2022-12-01T15:11:36.179Z,31.20
2022-12-01T15:14:03.419Z,29.35
2022-12-01T15:16:32.585Z,36.17
2022-12-01T15:19:00.868Z,34.58
2022-12-01T15:21:31.316Z,28.92
2022-12-01T15:24:04.917Z,28.30
2022-12-01T15:26:35.716Z,26.05
2022-12-01T15:29:19.619Z,32.38
2022-12-01T15:31:53.720Z,34.08
2022-12-01T15:34:45.116Z,30.17
2022-12-01T15:37:26.947Z,32.08
2022-12-01T15:40:59.857Z,29.17
2022-12-01T15:43:20.486Z,32.88
2022-12-01T15:45:54.464Z,35.47
2022-12-01T15:48:35.211Z,33.05
2022-12-01T15:51:05.882Z,30.88
2022-12-01T15:53:35.675Z,26.70
2022-12-01T15:56:09.646Z,30.92
2022-12-01T15:58:44.440Z,23.88
2022-12-01T16:01:21.499Z,25.70
2022-12-01T16:03:57.248Z,27.77
2022-12-01T16:06:30.864Z,26.52
2022-12-01T16:09:19.784Z,30.02
2022-12-01T16:12:11.838Z,30.30
2022-12-01T16:14:55.515Z,26.95
2022-12-01T16:20:19.516Z,31.45
2022-12-01T16:22:59.144Z,33.33
2022-12-01T16:25:40.620Z,34.58
2022-12-01T16:28:24.125Z,38.38
2022-12-01T16:30:53.568Z,35.25
2022-12-01T16:33:24.880Z,39.45
2022-12-01T16:35:53.236Z,36.88
2022-12-01T16:38:23.821Z,40.90
2022-12-01T16:40:55.411Z,34.92
2022-12-01T16:43:25.248Z,38.00
2022-12-01T16:46:03.489Z,36.05
2022-12-01T16:48:32.621Z,38.03
2022-12-01T16:51:06.559Z,42.30
2022-12-01T16:53:34.684Z,40.70
2022-12-01T16:56:03.819Z,37.63
2022-12-01T16:58:37.193Z,37.65
2022-12-01T17:01:07.281Z,37.63
2022-12-01T17:03:34.655Z,36.28
2022-12-01T17:06:03.313Z,37.13
2022-12-01T17:08:31.113Z,29.08
2022-12-01T17:10:59.376Z,30.10
2022-12-01T17:13:27.381Z,33.63
2022-12-01T17:15:55.674Z,31.00
2022-12-01T17:18:24.310Z,29.60
2022-12-01T17:21:05.828Z,31.38
2022-12-01T17:23:34.363Z,30.23
2022-12-01T17:26:01.806Z,33.67
2022-12-01T17:28:29.601Z,32.58
2022-12-01T17:31:00.916Z,33.67
2022-12-01T17:33:29.867Z,24.52
2022-12-01T17:36:00.910Z,20.63
2022-12-01T17:38:29.435Z,21.98
2022-12-01T17:41:02.127Z,23.10
2022-12-01T17:43:29.692Z,24.45
2022-12-01T17:45:57.620Z,23.40
2022-12-01T17:48:25.951Z,25.92
2022-12-01T17:50:53.249Z,25.60
2022-12-01T17:53:20.666Z,27.48
2022-12-01T17:55:48.175Z,30.63
2022-12-01T17:58:21.459Z,33.53
2022-12-01T18:00:55.448Z,39.03
2022-12-01T18:03:23.768Z,35.85
2022-12-01T18:05:59.213Z,36.33
2022-12-01T18:08:28.974Z,34.15
2022-12-01T18:10:56.856Z,30.10
2022-12-01T18:13:24.924Z,31.08
2022-12-01T18:15:52.703Z,28.13
2022-12-01T18:18:23.410Z,25.45
2022-12-01T18:20:52.129Z,23.67
2022-12-01T18:23:19.531Z,24.83
2022-12-01T18:25:49.013Z,25.02
2022-12-01T18:28:17.697Z,23.90
2022-12-01T18:30:51.935Z,24.83
2022-12-01T18:33:21.556Z,23.85
2022-12-01T18:35:51.056Z,20.50
2022-12-01T18:38:18.710Z,22.50
2022-12-01T18:40:48.182Z,22.20
2022-12-01T18:43:17.794Z,22.83
2022-12-01T18:45:46.090Z,22.48
2022-12-01T18:48:15.425Z,21.10
2022-12-01T18:50:43.220Z,22.40
2022-12-01T18:53:14.007Z,20.95
2022-12-01T18:55:41.415Z,23.88
2022-12-01T18:58:08.790Z,23.42
2022-12-01T19:00:36.096Z,21.88
2022-12-01T19:03:03.410Z,22.10
2022-12-01T19:05:33.642Z,24.17
2022-12-01T19:08:07.087Z,25.98
2022-12-01T19:13:01.761Z,27.17
2022-12-01T19:15:30.228Z,27.80
2022-12-01T19:17:57.805Z,28.90
2022-12-01T19:20:26.669Z,27.55
2022-12-01T19:22:55.134Z,29.50
2022-12-01T19:25:29.751Z,28.60
2022-12-01T19:27:58.816Z,30.92
2022-12-01T19:30:26.955Z,28.95
2022-12-01T19:32:56.208Z,27.02
2022-12-01T19:35:24.260Z,27.13
2022-12-01T19:37:53.314Z,26.83
2022-12-01T19:40:22.232Z,27.85
2022-12-01T19:42:49.790Z,29.58
2022-12-01T19:45:17.575Z,31.35
2022-12-01T19:47:49.194Z,30.50
2022-12-01T19:50:22.497Z,31.08
2022-12-01T19:52:59.078Z,32.30
2022-12-01T19:55:26.538Z,27.02
2022-12-01T19:57:54.413Z,26.33
2022-12-01T20:00:26.621Z,23.92
2022-12-01T20:02:53.724Z,26.33
2022-12-01T20:05:22.350Z,26.83
2022-12-01T20:07:51.419Z,23.25
2022-12-01T20:10:21.080Z,22.77
2022-12-01T20:12:55.097Z,22.42
2022-12-01T20:15:22.941Z,21.73
2022-12-01T20:17:50.977Z,24.52
2022-12-01T20:20:18.461Z,26.63
2022-12-01T20:22:49.243Z,28.73
2022-12-01T20:25:17.952Z,25.98
2022-12-01T20:27:46.309Z,23.92
2022-12-01T20:30:14.835Z,25.77
2022-12-01T20:32:43.876Z,28.90
2022-12-01T20:35:11.803Z,28.65
2022-12-01T20:37:39.341Z,27.05
2022-12-01T20:40:08.368Z,22.05
2022-12-01T20:42:37.597Z,24.48
2022-12-01T20:45:05.056Z,25.88
2022-12-01T20:47:37.650Z,25.25
2022-12-01T20:50:06.564Z,25.00
2022-12-01T20:52:34.287Z,25.77
2022-12-01T20:55:01.797Z,23.00
2022-12-01T20:57:29.491Z,25.30
2022-12-01T20:59:56.683Z,25.85
2022-12-01T21:02:23.739Z,29.52
2022-12-01T21:04:53.974Z,29.02
2022-12-01T21:07:26.111Z,28.42
2022-12-01T21:09:53.690Z,32.95
2022-12-01T21:12:39.413Z,24.55
2022-12-01T21:15:25.759Z,29.48
2022-12-01T21:18:05.049Z,25.35
2022-12-01T21:20:40.492Z,22.00
2022-12-01T21:23:13.104Z,21.58
2022-12-01T21:25:41.842Z,22.17
2022-12-01T21:28:25.043Z,27.30
2022-12-01T21:31:18.666Z,28.00
2022-12-01T21:33:46.864Z,39.55
2022-12-01T21:36:23.014Z,34.90
2022-12-01T21:38:56.094Z,33.33
2022-12-01T21:41:28.509Z,31.42
2022-12-01T21:44:16.867Z,31.15
2022-12-01T21:46:44.596Z,33.92
2022-12-01T21:49:25.627Z,30.88
2022-12-01T21:51:54.037Z,31.70
2022-12-01T21:54:23.235Z,25.50
2022-12-01T21:56:56.264Z,27.10
2022-12-01T21:59:30.003Z,25.52
2022-12-01T22:01:58.078Z,25.83
2022-12-01T22:04:30.546Z,23.70
2022-12-01T22:06:58.604Z,32.70
2022-12-01T22:09:34.466Z,33.38
2022-12-01T22:12:28.050Z,34.80
2022-12-01T22:15:01.305Z,33.53
2022-12-01T22:17:30.195Z,29.30
2022-12-01T22:20:21.556Z,26.25
2022-12-01T22:22:48.756Z,32.72
2022-12-01T22:25:25.746Z,36.47
2022-12-01T22:27:52.931Z,33.88
2022-12-01T22:30:24.185Z,39.10
2022-12-01T22:33:00.996Z,38.78
2022-12-01T22:35:42.492Z,31.80
2022-12-01T22:38:28.835Z,38.85
2022-12-01T22:41:03.756Z,37.42
2022-12-01T22:43:43.838Z,37.08
2022-12-01T22:46:21.792Z,55.40
2022-12-01T22:48:58.498Z,54.58
2022-12-01T22:51:26.968Z,42.47
2022-12-01T22:54:01.788Z,38.97
2022-12-01T22:56:47.389Z,34.83
2022-12-01T22:59:17.512Z,31.20
2022-12-01T23:01:53.444Z,29.98
2022-12-01T23:04:27.774Z,29.63
2022-12-01T23:07:07.413Z,28.48
2022-12-01T23:09:43.675Z,30.63
2022-12-01T23:12:28.716Z,29.48
2022-12-01T23:15:00.051Z,30.83
2022-12-01T23:17:33.062Z,31.33
2022-12-01T23:20:12.242Z,30.58
2022-12-01T23:22:39.711Z,29.23
2022-12-01T23:25:15.348Z,30.15
2022-12-01T23:27:44.470Z,29.33
2022-12-01T23:30:14.196Z,30.60
2022-12-01T23:32:42.124Z,29.27
2022-12-01T23:35:18.158Z,30.95
2022-12-01T23:37:48.180Z,33.45
2022-12-01T23:40:33.529Z,31.52
2022-12-01T23:43:25.531Z,28.25
2022-12-01T23:46:02.852Z,30.55
2022-12-01T23:48:39.681Z,28.95
2022-12-01T23:51:35.525Z,27.40
2022-12-01T23:54:13.768Z,30.50
2022-12-01T23:56:40.776Z,31.70
2022-12-01T23:59:14.023Z,33.72
